createdAt,value
2019-04-06T00:04:58.157Z,75.10
2019-04-06T00:10:21.428Z,75.37
2019-04-06T00:12:52.919Z,75.37
2019-04-06T00:15:22.381Z,75.03
2019-04-06T00:17:51.926Z,75.43
2019-04-06T00:20:21.351Z,75.46
2019-04-06T00:22:52.534Z,75.51
2019-04-06T00:25:23.781Z,75.70
2019-04-06T00:27:53.390Z,75.71
2019-04-06T00:30:22.968Z,76.35
2019-04-06T00:35:34.363Z,76.07
2019-04-06T00:38:15.786Z,76.03
2019-04-06T00:40:58.035Z,76.00
2019-04-06T00:43:39.323Z,76.12
2019-04-06T00:46:09.431Z,76.35
2019-04-06T00:48:38.903Z,76.35
2019-04-06T00:51:08.399Z,76.17
2019-04-06T00:53:37.967Z,76.33
2019-04-06T00:56:07.449Z,76.56
2019-04-06T00:58:36.943Z,76.68
2019-04-06T01:01:26.815Z,76.72
2019-04-06T01:04:07.573Z,76.89
2019-04-06T01:06:48.979Z,76.89
2019-04-06T01:09:18.910Z,76.99
2019-04-06T01:11:48.386Z,77.13
2019-04-06T01:14:28.412Z,77.37
2019-04-06T01:16:57.790Z,77.35
2019-04-06T01:19:27.190Z,77.44
2019-04-06T01:21:56.611Z,77.44
2019-04-06T01:24:26.112Z,77.13
2019-04-06T01:26:55.623Z,77.13
2019-04-06T01:29:25.279Z,77.18
2019-04-06T01:32:13.828Z,77.66
2019-04-06T01:34:55.036Z,77.66
2019-04-06T01:37:24.454Z,77.44
2019-04-06T01:40:13.138Z,77.46
2019-04-06T01:42:44.915Z,77.52
2019-04-06T01:45:14.531Z,77.87
2019-04-06T01:47:44.169Z,77.87
2019-04-06T01:50:14.102Z,78.10
2019-04-06T01:55:58.434Z,77.80
2019-04-06T01:58:40.006Z,77.65
2019-04-06T02:01:38.960Z,77.65
2019-04-06T02:04:08.569Z,78.28
2019-04-06T02:06:50.727Z,78.28
2019-04-06T02:09:31.738Z,78.53
2019-04-06T02:12:20.170Z,78.53
2019-04-06T02:17:43.378Z,78.36
2019-04-06T02:20:31.897Z,79.46
2019-04-06T02:26:07.489Z,78.84
2019-04-06T02:34:18.090Z,79.95
2019-04-06T02:37:06.387Z,80.39
2019-04-06T02:39:54.835Z,80.55
2019-04-06T02:42:43.343Z,80.55
2019-04-06T02:45:12.974Z,80.62
2019-04-06T02:47:51.805Z,80.62
2019-04-06T02:50:42.190Z,80.62
2019-04-06T02:53:23.658Z,81.04
2019-04-06T02:56:12.052Z,81.04
2019-04-06T02:58:44.466Z,80.50
2019-04-06T03:01:32.941Z,80.35
2019-04-06T03:04:13.925Z,80.00
2019-04-06T03:06:43.427Z,80.00
2019-04-06T03:09:31.871Z,80.46
2019-04-06T03:12:01.422Z,80.46
2019-04-06T03:14:31.339Z,79.83
2019-04-06T03:17:00.776Z,79.59
2019-04-06T03:19:30.758Z,79.53
2019-04-06T03:22:19.440Z,80.02
2019-04-06T03:24:48.863Z,79.46
2019-04-06T03:27:29.692Z,79.37
2019-04-06T03:30:10.491Z,80.05
2019-04-06T03:32:52.219Z,80.05
2019-04-06T03:35:21.707Z,80.01
2019-04-06T03:37:51.772Z,80.18
2019-04-06T03:43:10.238Z,80.49
2019-04-06T03:45:43.160Z,80.49
2019-04-06T03:48:51.211Z,80.57
2019-04-06T03:51:20.785Z,80.62
2019-04-06T03:54:09.354Z,80.42
2019-04-06T03:56:38.862Z,80.42
2019-04-06T03:59:08.341Z,80.21
2019-04-06T04:01:39.735Z,79.92
2019-04-06T04:04:47.314Z,79.79
2019-04-06T04:07:16.805Z,79.79
2019-04-06T04:09:46.504Z,80.07
2019-04-06T04:12:35.715Z,79.93
2019-04-06T04:15:16.634Z,80.13
2019-04-06T04:17:46.079Z,80.13
2019-04-06T04:20:15.493Z,80.14
2019-04-06T04:22:45.196Z,80.44
2019-04-06T04:25:16.214Z,80.44
2019-04-06T04:27:45.799Z,80.53
2019-04-06T04:30:34.966Z,80.34
2019-04-06T04:33:16.414Z,80.34
2019-04-06T04:35:46.073Z,80.66
2019-04-06T04:38:34.856Z,81.37
2019-04-06T04:41:04.526Z,81.37
2019-04-06T04:43:33.974Z,81.08
2019-04-06T04:46:22.505Z,80.90
2019-04-06T04:49:11.333Z,80.99
2019-04-06T04:51:40.928Z,80.99
2019-04-06T04:57:03.151Z,81.01
2019-04-06T04:59:32.574Z,81.07
2019-04-06T05:02:02.023Z,80.73
2019-04-06T05:05:09.547Z,80.27
2019-04-06T05:07:38.598Z,80.27
2019-04-06T05:10:08.534Z,80.06
2019-04-06T05:12:57.141Z,79.69
2019-04-06T05:16:04.584Z,79.69
2019-04-06T05:18:33.985Z,79.71
2019-04-06T05:21:03.525Z,79.32
2019-04-06T05:23:33.093Z,78.73
2019-04-06T05:26:02.865Z,78.44
2019-04-06T05:28:32.257Z,78.44
2019-04-06T05:31:01.944Z,78.29
2019-04-06T05:33:43.099Z,78.01
2019-04-06T05:36:23.663Z,77.48
2019-04-06T05:38:55.874Z,77.48
2019-04-06T05:41:25.358Z,76.90
2019-04-06T05:43:54.969Z,76.74
2019-04-06T05:46:24.351Z,76.42
2019-04-06T05:48:55.555Z,76.27
2019-04-06T05:51:25.031Z,75.89
2019-04-06T05:53:54.414Z,75.81
2019-04-06T05:56:26.215Z,75.45
2019-04-06T05:59:14.671Z,75.32
2019-04-06T06:01:44.282Z,75.12
2019-04-06T06:04:13.861Z,74.86
2019-04-06T06:06:43.398Z,74.39
2019-04-06T06:09:15.437Z,74.17
2019-04-06T06:11:45.202Z,73.93
2019-04-06T06:17:08.199Z,72.92
2019-04-06T06:19:37.733Z,72.92
2019-04-06T06:22:10.504Z,72.16
2019-04-06T06:24:40.142Z,72.16
2019-04-06T06:27:28.543Z,72.11
2019-04-06T06:29:58.180Z,72.11
2019-04-06T06:35:26.944Z,70.65
2019-04-06T06:43:40.997Z,68.67
2019-04-06T06:46:10.647Z,67.82
2019-04-06T06:48:40.104Z,67.07
2019-04-06T06:51:09.846Z,66.24
2019-04-06T06:53:39.319Z,65.66
2019-04-06T06:56:08.778Z,64.80
2019-04-06T06:58:38.308Z,63.83
2019-04-06T07:01:07.720Z,63.18
2019-04-06T07:03:37.514Z,62.69
2019-04-06T07:06:08.460Z,62.12
2019-04-06T07:11:31.572Z,60.75
2019-04-06T07:14:01.134Z,59.65
2019-04-06T07:16:30.815Z,58.78
2019-04-06T07:19:21.125Z,58.00
2019-04-06T07:21:50.655Z,57.13
2019-04-06T07:24:20.341Z,57.00
2019-04-06T07:27:08.697Z,56.11
2019-04-06T07:29:38.530Z,55.77
2019-04-06T07:32:08.027Z,55.23
2019-04-06T07:37:12.263Z,53.59
2019-04-06T07:42:16.697Z,53.19
2019-04-06T07:44:58.039Z,52.23
2019-04-06T07:47:27.756Z,51.87
2019-04-06T07:49:57.144Z,50.52
2019-04-06T07:52:26.569Z,51.24
2019-04-06T07:55:15.124Z,51.20
2019-04-06T07:57:49.416Z,50.28
2019-04-06T08:00:37.781Z,50.00
2019-04-06T08:11:15.161Z,49.28
2019-04-06T08:13:44.574Z,49.09
2019-04-06T08:16:14.279Z,49.13
2019-04-06T08:19:04.103Z,48.92
2019-04-06T08:24:27.040Z,47.94
2019-04-06T08:26:56.730Z,48.21
2019-04-06T08:29:26.145Z,48.68
2019-04-06T08:31:55.658Z,47.29
2019-04-06T08:34:25.077Z,47.25
2019-04-06T08:36:54.505Z,46.81
2019-04-06T08:39:25.689Z,46.70
2019-04-06T08:42:10.315Z,45.51
2019-04-06T08:44:39.840Z,45.33
2019-04-06T08:47:09.264Z,44.79
2019-04-06T08:49:38.602Z,44.12
2019-04-06T08:52:08.517Z,43.73
2019-04-06T08:54:37.895Z,43.85
2019-04-06T08:57:07.422Z,44.53
2019-04-06T08:59:36.951Z,43.44
2019-04-06T09:02:06.416Z,43.09
2019-04-06T09:04:35.911Z,42.65
2019-04-06T09:07:05.342Z,43.15
2019-04-06T09:09:37.072Z,43.23
2019-04-06T09:12:06.594Z,41.48
2019-04-06T09:14:36.195Z,41.85
2019-04-06T09:17:05.792Z,41.65
2019-04-06T09:22:23.727Z,39.67
2019-04-06T09:24:53.325Z,39.37
2019-04-06T09:27:22.956Z,40.47
2019-04-06T09:29:52.374Z,40.50
2019-04-06T09:32:22.260Z,40.02
2019-04-06T09:34:51.847Z,39.79
2019-04-06T09:37:23.020Z,39.79
2019-04-06T09:39:52.679Z,39.72
2019-04-06T09:42:22.269Z,39.08
2019-04-06T09:45:22.158Z,38.64
2019-04-06T09:51:19.308Z,38.03
2019-04-06T09:57:16.237Z,36.07
2019-04-06T09:59:54.654Z,37.21
2019-04-06T10:02:42.952Z,37.31
2019-04-06T10:05:28.011Z,36.50
2019-04-06T10:08:16.631Z,35.69
2019-04-06T10:11:04.860Z,34.76
2019-04-06T10:13:53.283Z,34.39
2019-04-06T10:16:43.785Z,34.24
2019-04-06T10:19:30.111Z,33.74
2019-04-06T10:22:18.633Z,33.83
2019-04-06T10:25:10.884Z,33.91
2019-04-06T10:27:58.334Z,33.15
2019-04-06T10:30:46.710Z,33.08
2019-04-06T10:33:26.354Z,33.29
2019-04-06T10:36:11.493Z,32.97
2019-04-06T10:38:59.860Z,32.68
2019-04-06T10:41:48.282Z,32.45
2019-04-06T10:47:20.248Z,30.80
2019-04-06T10:50:08.712Z,30.71
2019-04-06T10:52:57.035Z,30.74
2019-04-06T10:55:45.584Z,30.99
2019-04-06T10:58:34.238Z,31.09
2019-04-06T11:01:11.579Z,30.30
2019-04-06T11:03:59.912Z,30.01
2019-04-06T11:06:48.172Z,30.36
2019-04-06T11:09:36.522Z,30.28
2019-04-06T11:12:24.811Z,29.95
2019-04-06T11:15:13.259Z,29.55
2019-04-06T11:18:04.786Z,30.08
2019-04-06T11:20:53.066Z,29.45
2019-04-06T11:23:41.409Z,29.78
2019-04-06T11:26:29.835Z,29.07
2019-04-06T11:29:06.290Z,29.34
2019-04-06T11:31:58.004Z,28.99
2019-04-06T11:34:46.582Z,28.68
2019-04-06T11:37:34.906Z,28.43
2019-04-06T11:43:18.912Z,28.13
2019-04-06T11:46:07.513Z,28.23
2019-04-06T11:48:55.969Z,27.96
2019-04-06T11:51:44.313Z,28.20
2019-04-06T11:54:32.978Z,28.05
2019-04-06T11:57:21.259Z,28.80
2019-04-06T12:03:03.077Z,27.83
2019-04-06T12:05:48.246Z,27.42
2019-04-06T12:08:36.548Z,27.92
2019-04-06T12:11:25.273Z,28.09
2019-04-06T12:14:14.251Z,28.43
2019-04-06T12:17:23.212Z,27.94
2019-04-06T12:20:18.770Z,27.81
2019-04-06T12:23:07.042Z,27.86
2019-04-06T12:28:37.637Z,28.07
2019-04-06T12:31:28.820Z,27.71
2019-04-06T12:34:23.589Z,27.64
2019-04-06T12:37:12.254Z,27.74
2019-04-06T12:39:53.449Z,28.38
2019-04-06T12:42:36.795Z,27.77
2019-04-06T12:45:45.510Z,27.63
2019-04-06T12:51:15.696Z,27.29
2019-04-06T12:54:04.448Z,26.96
2019-04-06T12:56:41.031Z,27.46
2019-04-06T12:59:18.833Z,27.09
2019-04-06T13:02:07.281Z,27.27
2019-04-06T13:08:08.880Z,26.83
2019-04-06T13:10:58.840Z,27.18
2019-04-06T13:13:47.155Z,27.03
2019-04-06T13:16:25.680Z,26.98
2019-04-06T13:19:05.571Z,27.22
2019-04-06T13:21:54.155Z,26.84
2019-04-06T13:31:01.455Z,26.62
2019-04-06T13:33:40.525Z,26.31
2019-04-06T13:36:32.913Z,26.52
2019-04-06T13:39:27.629Z,26.41
2019-04-06T13:42:16.308Z,26.18
2019-04-06T13:45:01.730Z,26.39
2019-04-06T13:48:09.086Z,26.12
2019-04-06T13:50:47.436Z,25.98
2019-04-06T13:53:35.828Z,26.59
2019-04-06T13:59:17.676Z,26.14
2019-04-06T14:04:50.927Z,26.21
2019-04-06T14:10:33.573Z,26.70
2019-04-06T14:13:22.313Z,26.55
2019-04-06T14:16:10.978Z,26.36
2019-04-06T14:18:59.942Z,26.57
2019-04-06T14:21:48.748Z,26.37
2019-04-06T14:24:45.639Z,26.47
2019-04-06T14:27:34.008Z,26.89
2019-04-06T14:30:22.480Z,27.47
2019-04-06T14:33:11.015Z,26.76
2019-04-06T14:36:00.890Z,26.55
2019-04-06T14:38:49.497Z,26.44
2019-04-06T14:41:30.407Z,26.43
2019-04-06T14:44:17.039Z,26.51
2019-04-06T14:47:05.547Z,26.64
2019-04-06T14:49:54.283Z,26.95
2019-04-06T14:52:43.108Z,26.76
2019-04-06T14:55:33.949Z,26.56
2019-04-06T14:58:22.295Z,26.36
2019-04-06T15:01:10.600Z,26.61
2019-04-06T15:03:59.159Z,25.99
2019-04-06T15:06:47.497Z,26.01
2019-04-06T15:09:36.013Z,26.44
2019-04-06T15:12:47.575Z,26.35
2019-04-06T15:15:27.578Z,26.21
2019-04-06T15:18:03.915Z,26.24
2019-04-06T15:23:45.764Z,26.65
2019-04-06T15:29:47.977Z,26.40
2019-04-06T15:32:36.638Z,26.66
2019-04-06T15:35:22.690Z,26.42
2019-04-06T15:38:10.995Z,26.48
2019-04-06T15:40:59.548Z,26.89
2019-04-06T15:43:47.914Z,26.52
2019-04-06T15:46:36.653Z,26.46
2019-04-06T15:49:25.174Z,26.64
2019-04-06T15:54:59.962Z,26.78
2019-04-06T15:58:09.484Z,27.01
2019-04-06T16:00:57.911Z,27.26
2019-04-06T16:03:38.787Z,27.79
2019-04-06T16:06:27.358Z,27.86
2019-04-06T16:09:15.629Z,28.25
2019-04-06T16:12:03.975Z,28.28
2019-04-06T16:14:47.005Z,28.56
2019-04-06T16:17:31.864Z,28.60
2019-04-06T16:20:39.175Z,28.83
2019-04-06T16:23:27.535Z,28.91
2019-04-06T16:26:15.766Z,29.02
2019-04-06T16:29:18.899Z,29.17
2019-04-06T16:32:12.309Z,29.34
2019-04-06T16:34:57.664Z,29.63
2019-04-06T16:37:46.148Z,29.90
2019-04-06T16:40:34.962Z,30.27
2019-04-06T16:43:23.263Z,30.54
2019-04-06T16:46:11.889Z,30.66
2019-04-06T16:49:00.736Z,30.72
2019-04-06T16:51:46.160Z,31.03
2019-04-06T16:54:34.419Z,31.43
2019-04-06T16:57:16.046Z,31.83
2019-04-06T16:59:56.894Z,32.33
2019-04-06T17:02:45.611Z,32.79
2019-04-06T17:05:34.051Z,33.28
2019-04-06T17:08:22.502Z,33.73
2019-04-06T17:11:04.610Z,33.99
2019-04-06T17:19:23.154Z,34.82
2019-04-06T17:22:11.438Z,35.06
2019-04-06T17:24:59.815Z,35.20
2019-04-06T17:27:48.191Z,35.44
2019-04-06T17:30:28.632Z,35.56
2019-04-06T17:36:19.586Z,36.10
2019-04-06T17:39:20.327Z,36.17
2019-04-06T17:42:08.763Z,36.39
2019-04-06T17:44:57.626Z,36.56
2019-04-06T17:47:48.987Z,36.74
2019-04-06T17:50:36.550Z,36.89
2019-04-06T17:53:24.851Z,37.02
2019-04-06T17:59:05.662Z,37.21
2019-04-06T18:01:54.586Z,37.27
2019-04-06T18:04:44.271Z,37.28
2019-04-06T18:07:32.541Z,37.40
2019-04-06T18:10:21.114Z,37.67
2019-04-06T18:13:00.066Z,37.90
2019-04-06T18:18:12.962Z,38.40
2019-04-06T18:20:44.796Z,38.64
2019-04-06T18:23:13.484Z,38.67
2019-04-06T18:25:45.854Z,38.91
2019-04-06T18:28:15.294Z,39.01
2019-04-06T18:30:49.866Z,39.23
2019-04-06T18:33:22.746Z,39.32
2019-04-06T18:38:43.732Z,39.81
2019-04-06T18:41:13.140Z,39.96
2019-04-06T18:43:42.591Z,40.16
2019-04-06T18:46:12.223Z,40.40
2019-04-06T18:49:07.714Z,40.48
2019-04-06T18:51:48.993Z,40.75
2019-04-06T18:54:18.388Z,40.91
2019-04-06T18:56:47.797Z,41.06
2019-04-06T18:59:21.061Z,40.91
2019-04-06T19:01:50.822Z,41.23
2019-04-06T19:04:33.969Z,41.33
2019-04-06T19:10:12.556Z,41.55
2019-04-06T19:12:42.808Z,41.68
2019-04-06T19:15:14.245Z,41.62
2019-04-06T19:23:24.643Z,41.86
2019-04-06T19:26:05.957Z,41.84
2019-04-06T19:28:35.604Z,41.87
2019-04-06T19:31:05.728Z,42.03
2019-04-06T19:33:36.525Z,42.16
2019-04-06T19:36:18.330Z,42.20
2019-04-06T19:41:41.745Z,42.36
2019-04-06T19:44:11.382Z,42.43
2019-04-06T19:46:40.749Z,42.57
2019-04-06T19:49:10.378Z,42.66
2019-04-06T19:51:39.905Z,42.76
2019-04-06T19:54:09.337Z,42.84
2019-04-06T19:59:13.880Z,43.07
2019-04-06T20:01:54.776Z,43.04
2019-04-06T20:04:26.100Z,43.03
2019-04-06T20:06:55.900Z,43.18
2019-04-06T20:09:27.550Z,43.62
2019-04-06T20:12:04.315Z,43.62
2019-04-06T20:14:28.455Z,43.79
2019-04-06T20:16:58.003Z,43.92
2019-04-06T20:19:27.504Z,43.91
2019-04-06T20:21:57.034Z,43.81
2019-04-06T20:24:26.653Z,44.20
2019-04-06T20:26:56.146Z,44.27
2019-04-06T20:29:25.595Z,44.51
2019-04-06T20:31:55.215Z,44.40
2019-04-06T20:34:24.612Z,44.77
2019-04-06T20:36:54.204Z,44.70
2019-04-06T20:39:23.671Z,44.88
2019-04-06T20:41:53.198Z,45.14
2019-04-06T20:44:23.330Z,45.21
2019-04-06T20:46:52.960Z,45.50
2019-04-06T20:49:22.367Z,45.22
2019-04-06T20:51:52.321Z,45.34
2019-04-06T20:54:30.738Z,45.41
2019-04-06T20:57:00.501Z,45.63
2019-04-06T20:59:31.642Z,45.69
2019-04-06T21:02:02.933Z,45.75
2019-04-06T21:04:52.766Z,45.97
2019-04-06T21:07:22.796Z,46.10
2019-04-06T21:09:52.933Z,46.55
2019-04-06T21:12:23.945Z,46.34
2019-04-06T21:14:54.337Z,46.66
2019-04-06T21:17:25.426Z,46.79
2019-04-06T21:19:55.053Z,46.87
2019-04-06T21:22:26.237Z,46.60
2019-04-06T21:24:55.750Z,46.69
2019-04-06T21:27:26.098Z,46.95
2019-04-06T21:29:56.120Z,47.27
2019-04-06T21:32:27.088Z,47.16
2019-04-06T21:34:56.991Z,47.59
2019-04-06T21:37:27.813Z,47.65
2019-04-06T21:39:57.780Z,47.77
2019-04-06T21:42:28.654Z,48.01
2019-04-06T21:44:58.248Z,48.30
2019-04-06T21:47:27.599Z,48.06
2019-04-06T21:49:56.985Z,48.17
2019-04-06T21:52:26.426Z,48.07
2019-04-06T21:55:07.880Z,47.98
2019-04-06T21:57:37.724Z,48.34
2019-04-06T22:06:08.250Z,48.81
2019-04-06T22:08:56.898Z,49.11
2019-04-06T22:11:26.587Z,49.23
2019-04-06T22:13:56.651Z,49.46
2019-04-06T22:16:27.332Z,50.11
2019-04-06T22:18:56.729Z,50.15
2019-04-06T22:21:26.158Z,50.48
2019-04-06T22:23:55.567Z,50.96
2019-04-06T22:26:25.188Z,51.11
2019-04-06T22:29:15.423Z,51.49
2019-04-06T22:31:45.103Z,51.88
2019-04-06T22:34:14.876Z,52.22
2019-04-06T22:36:44.509Z,51.94
2019-04-06T22:39:15.602Z,52.65
2019-04-06T22:41:45.238Z,52.89
2019-04-06T22:44:15.439Z,52.90
2019-04-06T22:46:45.120Z,52.86
2019-04-06T22:49:14.655Z,53.12
2019-04-06T22:51:44.277Z,53.33
2019-04-06T22:54:17.313Z,53.41
2019-04-06T22:56:57.772Z,53.53
2019-04-06T23:02:29.653Z,53.67
2019-04-06T23:07:53.763Z,54.24
2019-04-06T23:10:23.792Z,54.12
2019-04-06T23:12:53.282Z,54.49
2019-04-06T23:15:54.224Z,54.66
2019-04-06T23:18:25.770Z,54.65
2019-04-06T23:21:09.674Z,55.00
2019-04-06T23:23:39.579Z,55.11
2019-04-06T23:26:08.984Z,55.05
2019-04-06T23:28:38.928Z,54.97
2019-04-06T23:31:08.352Z,54.78
2019-04-06T23:33:38.056Z,54.80
2019-04-06T23:36:07.814Z,54.82
2019-04-06T23:38:39.494Z,54.59
2019-04-06T23:41:09.438Z,54.34
2019-04-06T23:43:40.454Z,54.62
2019-04-06T23:46:10.059Z,54.22
2019-04-06T23:48:39.534Z,54.24
2019-04-06T23:51:09.463Z,53.82
2019-04-06T23:53:38.876Z,53.99
2019-04-06T23:56:08.986Z,53.76
2019-04-06T23:58:44.354Z,53.68
